Anthony, TX

9:30 PM MDT on October 24, 2014 (GMT -0600)
Chaparral Park North | Change Station
CLOSE
Current Station
Personal Weather Station
Location: El Paso, TX
Elevation: 4372 ft
Nearby Weather Stations

Elev 4372 ft 31.85 °N, 106.52 °W | Updated 3 minutes ago

Clear
Clear
69.9 °F
Feels Like 69.9 °F
N
0.0
Wind Variable Wind from East
Gusts 1.0 mph

Today
High -- | Low -- °F
--% Chance of Precip.
Yesterday
High -- | Low -- °F
Precip. -- in
7:16 AM 6:24 PM
New Moon, 2% visible
Pressure 30.04 in
Visibility 8.0 miles
Clouds Clear
Dew Point 46 °F
Humidity 43%
Rainfall 0.00 in
Snow Depth Not available.
UV 0 out of 12
Pollen 5.50 out of 12
Air Quality Not available.
Flu Activity Local Activity
METAR KBIF 250158Z AUTO 25002KT 8SM CLR 22/09 A3018 RMK AO2 SLP173 T02210089

More Conditions Fewer Conditions

Pressure 30.04 in
Visibility 8.0 miles
Clouds Clear
Dew Point 46 °F
Humidity 43%
Rainfall 0.00 in
Snow Depth Not available.
UV 0 out of 12
Pollen 5.50 out of 12
Air Quality Not available.
Flu Activity Local Activity
METAR KBIF 250158Z AUTO 25002KT 8SM CLR 22/09 A3018 RMK AO2 SLP173 T02210089

More Conditions Fewer Conditions

10-Day Weather Forecast

Almanac

Astronomy

Oct. 24, 2014 Rise Set
Actual Time 7:16 AM MDT 6:24 PM MDT
Civil Twilight 6:51 AM MDT 6:48 PM MDT
Nautical Twilight 6:23 AM MDT 7:17 PM MDT
Astronomical Twilight 5:54 AM MDT 7:45 PM MDT
Moon 7:56 AM MDT (10/24) 7:08 PM MDT (10/24)
Length of Visible Light 11h 57m
Length of Day
11h 07m
Tomorrow will be 1m 48s shorter.
New Moon, 2% of the Moon is Illuminated
Today
New Moon
Oct 30
First Quarter
Nov 6
Full
Nov 14
Last Quarter
Nov 22
New

Today's Extremes

State Highs State Lows

Community

WunderPhotos

Upload Photos

1,764,771 photos uploaded!

Nearby

Snow Depth

Station Depth Elevation
No new snow has been reported.

Earthquake Activity

City Distance Mag. Time & Date
No recent earthquake activity has been reported nearby.
Minimum magnitude displayed is 2.5.

Coastal Water Temperatures

Place Temperature
No Stations Reporting

Nearby Weather Stations